createdAt,value
2018-10-21T00:00:05.417Z,936.32
2018-10-21T00:01:05.429Z,936.37
2018-10-21T00:02:05.397Z,936.41
2018-10-21T00:03:05.453Z,936.42
2018-10-21T00:04:05.390Z,936.46
2018-10-21T00:05:05.383Z,936.46
2018-10-21T00:06:05.404Z,936.44
2018-10-21T00:07:05.371Z,936.45
2018-10-21T00:08:05.327Z,936.36
2018-10-21T00:09:05.384Z,936.39
2018-10-21T00:10:05.311Z,936.40
2018-10-21T00:11:05.284Z,936.38
2018-10-21T00:12:05.280Z,936.45
2018-10-21T00:13:05.268Z,936.39
2018-10-21T00:14:05.246Z,936.49
2018-10-21T00:15:05.336Z,936.47
2018-10-21T00:16:05.284Z,936.48
2018-10-21T00:17:05.234Z,936.48
2018-10-21T00:18:05.220Z,936.48
2018-10-21T00:19:05.218Z,936.44
2018-10-21T00:20:05.206Z,936.41
2018-10-21T00:21:05.226Z,936.40
2018-10-21T00:22:05.181Z,936.37
2018-10-21T00:23:05.148Z,936.42
2018-10-21T00:24:05.134Z,936.38
2018-10-21T00:25:05.146Z,936.33
2018-10-21T00:26:05.103Z,936.32
2018-10-21T00:27:05.101Z,936.33
2018-10-21T00:28:05.114Z,936.34
2018-10-21T00:29:05.123Z,936.32
2018-10-21T00:30:05.065Z,936.32
2018-10-21T00:31:05.062Z,936.37
2018-10-21T00:32:05.039Z,936.39
2018-10-21T00:33:05.082Z,936.35
2018-10-21T00:34:05.071Z,936.39
2018-10-21T00:35:05.058Z,936.41
2018-10-21T00:36:04.999Z,936.36
2018-10-21T00:37:04.988Z,936.35
2018-10-21T00:38:04.975Z,936.33
2018-10-21T00:39:04.996Z,936.32
2018-10-21T00:40:04.939Z,936.32
2018-10-21T00:41:04.932Z,936.32
2018-10-21T00:42:04.928Z,936.35
2018-10-21T00:43:04.900Z,936.34
2018-10-21T00:44:04.945Z,936.35
2018-10-21T00:45:04.954Z,936.39
2018-10-21T00:46:04.899Z,936.37
2018-10-21T00:47:04.883Z,936.38
2018-10-21T00:48:04.869Z,936.38
2018-10-21T00:49:04.886Z,936.36
2018-10-21T00:50:04.824Z,936.38
2018-10-21T00:51:04.889Z,936.38
2018-10-21T00:52:04.811Z,936.39
2018-10-21T00:53:04.797Z,936.34
2018-10-21T00:54:04.783Z,936.34
2018-10-21T00:55:04.812Z,936.28
2018-10-21T00:56:04.769Z,936.23
2018-10-21T00:57:04.810Z,936.27
2018-10-21T00:58:04.740Z,936.26
2018-10-21T00:59:04.705Z,936.32
2018-10-21T01:00:04.710Z,936.32
2018-10-21T01:01:04.706Z,936.31
2018-10-21T01:02:04.728Z,936.39
2018-10-21T01:03:04.743Z,936.40
2018-10-21T01:04:04.660Z,936.38
2018-10-21T01:05:04.658Z,936.40
2018-10-21T01:06:04.640Z,936.37
2018-10-21T01:07:04.621Z,936.44
2018-10-21T01:08:04.624Z,936.45
2018-10-21T01:09:04.649Z,936.42
2018-10-21T01:10:04.612Z,936.42
2018-10-21T01:11:04.614Z,936.41
2018-10-21T01:12:04.546Z,936.40
2018-10-21T01:13:04.595Z,936.38
2018-10-21T01:14:04.547Z,936.40
2018-10-21T01:15:04.558Z,936.32
2018-10-21T01:16:04.505Z,936.31
2018-10-21T01:17:04.500Z,936.26
2018-10-21T01:18:04.503Z,936.23
2018-10-21T01:19:04.487Z,936.26
2018-10-21T01:20:04.461Z,936.26
2018-10-21T01:21:04.501Z,936.23
2018-10-21T01:22:04.430Z,936.21
2018-10-21T01:23:04.480Z,936.22
2018-10-21T01:24:04.425Z,936.18
2018-10-21T01:25:04.409Z,936.20
2018-10-21T01:26:04.404Z,936.21
2018-10-21T01:27:04.422Z,936.25
2018-10-21T01:28:04.373Z,936.18
2018-10-21T01:29:04.376Z,936.13
2018-10-21T01:30:04.340Z,936.12
2018-10-21T01:31:04.337Z,936.15
2018-10-21T01:32:04.313Z,936.14
2018-10-21T01:33:04.350Z,936.14
2018-10-21T01:34:04.345Z,936.18
2018-10-21T01:35:04.296Z,936.17
2018-10-21T01:36:04.285Z,936.21
2018-10-21T01:37:04.286Z,936.23
2018-10-21T01:38:04.320Z,936.19
2018-10-21T01:39:04.296Z,936.18
2018-10-21T01:40:04.225Z,936.19
2018-10-21T01:41:04.237Z,936.14
2018-10-21T01:42:04.228Z,936.18
2018-10-21T01:43:04.192Z,936.14
2018-10-21T01:44:04.194Z,936.14
2018-10-21T01:45:04.239Z,936.18
2018-10-21T01:46:04.156Z,936.10
2018-10-21T01:47:04.161Z,936.12
2018-10-21T01:48:04.129Z,936.14
2018-10-21T01:49:04.121Z,936.12
2018-10-21T01:50:04.119Z,936.18
2018-10-21T01:51:04.191Z,936.13
2018-10-21T01:52:04.102Z,936.15
2018-10-21T01:53:04.091Z,936.19
2018-10-21T01:54:04.053Z,936.13
2018-10-21T01:55:04.036Z,936.15
2018-10-21T01:56:04.084Z,936.14
2018-10-21T01:57:04.069Z,936.16
2018-10-21T01:58:04.020Z,936.15
2018-10-21T01:59:04.013Z,936.12
2018-10-21T02:00:03.996Z,936.15
2018-10-21T02:01:03.988Z,936.18
2018-10-21T02:02:03.970Z,936.16
2018-10-21T02:03:03.968Z,936.20
2018-10-21T02:04:03.956Z,936.25
2018-10-21T02:05:03.928Z,936.20
2018-10-21T02:06:04.021Z,936.21
2018-10-21T02:07:03.914Z,936.20
2018-10-21T02:08:03.895Z,936.19
2018-10-21T02:09:03.942Z,936.19
2018-10-21T02:10:03.885Z,936.21
2018-10-21T02:11:04.010Z,936.19
2018-10-21T02:12:03.843Z,936.21
2018-10-21T02:13:03.854Z,936.23
2018-10-21T02:14:03.874Z,936.19
2018-10-21T02:15:03.850Z,936.15
2018-10-21T02:16:03.801Z,936.14
2018-10-21T02:17:03.809Z,936.11
2018-10-21T02:18:03.775Z,936.17
2018-10-21T02:19:03.816Z,936.19
2018-10-21T02:20:03.748Z,936.20
2018-10-21T02:21:03.916Z,936.17
2018-10-21T02:22:03.785Z,936.18
2018-10-21T02:23:03.729Z,936.18
2018-10-21T02:24:03.751Z,936.15
2018-10-21T02:25:03.703Z,936.16
2018-10-21T02:26:03.795Z,936.16
2018-10-21T02:27:03.733Z,936.18
2018-10-21T02:28:03.669Z,936.17
2018-10-21T02:29:03.643Z,936.18
2018-10-21T02:30:03.655Z,936.17
2018-10-21T02:31:03.725Z,936.21
2018-10-21T02:32:03.645Z,936.15
2018-10-21T02:33:03.644Z,936.14
2018-10-21T02:34:03.603Z,936.14
2018-10-21T02:35:03.599Z,936.13
2018-10-21T02:36:03.565Z,936.09
2018-10-21T02:37:03.647Z,936.05
2018-10-21T02:38:03.540Z,936.05
2018-10-21T02:39:03.588Z,936.03
2018-10-21T02:40:03.517Z,936.01
2018-10-21T02:41:03.523Z,936.07
2018-10-21T02:42:03.507Z,936.09
2018-10-21T02:43:03.495Z,936.04
2018-10-21T02:44:03.466Z,936.03
2018-10-21T02:45:03.552Z,936.06
2018-10-21T02:46:03.507Z,936.08
2018-10-21T02:47:03.454Z,936.12
2018-10-21T02:48:03.441Z,936.12
2018-10-21T02:49:03.410Z,936.16
2018-10-21T02:50:03.423Z,936.20
2018-10-21T02:51:03.398Z,936.17
2018-10-21T02:52:03.377Z,936.18
2018-10-21T02:53:03.421Z,936.14
2018-10-21T02:54:03.351Z,936.13
2018-10-21T02:55:03.341Z,936.05
2018-10-21T02:56:03.357Z,936.08
2018-10-21T02:57:03.322Z,936.06
2018-10-21T02:58:03.324Z,936.03
2018-10-21T02:59:03.352Z,936.00
2018-10-21T03:00:03.279Z,936.01
2018-10-21T03:01:03.282Z,936.03
2018-10-21T03:02:03.269Z,936.00
2018-10-21T03:03:03.358Z,936.02
2018-10-21T03:04:03.283Z,936.00
2018-10-21T03:05:03.278Z,935.99
2018-10-21T03:06:03.206Z,935.97
2018-10-21T03:07:03.216Z,935.99
2018-10-21T03:08:03.182Z,936.01
2018-10-21T03:09:03.200Z,935.98
2018-10-21T03:10:03.168Z,936.01
2018-10-21T03:11:03.165Z,936.02
2018-10-21T03:12:03.126Z,936.00
2018-10-21T03:13:03.128Z,936.00
2018-10-21T03:14:03.123Z,936.01
2018-10-21T03:15:03.124Z,936.04
2018-10-21T03:16:03.099Z,936.01
2018-10-21T03:17:03.077Z,936.00
2018-10-21T03:18:03.076Z,936.01
2018-10-21T03:19:03.058Z,935.99
2018-10-21T03:20:03.033Z,935.94
2018-10-21T03:21:03.138Z,935.96
2018-10-21T03:22:03.064Z,935.99
2018-10-21T03:23:03.024Z,935.94
2018-10-21T03:24:02.997Z,935.95
2018-10-21T03:25:02.988Z,935.96
2018-10-21T03:26:02.990Z,935.92
2018-10-21T03:27:02.982Z,935.90
2018-10-21T03:28:02.969Z,935.93
2018-10-21T03:29:02.946Z,935.92
2018-10-21T03:30:02.930Z,935.88
2018-10-21T03:31:02.945Z,935.88
2018-10-21T03:32:02.921Z,935.89
2018-10-21T03:33:03.072Z,935.90
2018-10-21T03:34:02.969Z,935.87
2018-10-21T03:35:02.888Z,935.86
2018-10-21T03:36:02.862Z,935.91
2018-10-21T03:37:02.867Z,935.88
2018-10-21T03:38:02.897Z,935.91
2018-10-21T03:39:02.842Z,935.93
2018-10-21T03:40:02.881Z,935.87
2018-10-21T03:41:02.811Z,935.91
2018-10-21T03:42:02.798Z,935.88
2018-10-21T03:43:02.765Z,935.90
2018-10-21T03:44:02.774Z,935.87
2018-10-21T03:45:02.745Z,935.86
2018-10-21T03:46:02.826Z,935.88
2018-10-21T03:47:02.726Z,935.84
2018-10-21T03:48:02.728Z,935.86
2018-10-21T03:49:02.724Z,935.85
2018-10-21T03:50:02.705Z,935.83
2018-10-21T03:51:02.678Z,935.83
2018-10-21T03:52:02.727Z,935.82
2018-10-21T03:53:02.674Z,935.78
2018-10-21T03:54:02.654Z,935.80
2018-10-21T03:55:02.624Z,935.78
2018-10-21T03:56:02.629Z,935.81
2018-10-21T03:57:02.631Z,935.81
2018-10-21T03:58:02.600Z,935.76
2018-10-21T03:59:02.595Z,935.73
2018-10-21T04:00:02.591Z,935.72
2018-10-21T04:01:02.576Z,935.65
2018-10-21T04:02:02.578Z,935.65
2018-10-21T04:03:02.584Z,935.65
2018-10-21T04:04:02.577Z,935.65
2018-10-21T04:05:02.516Z,935.63
2018-10-21T04:06:02.563Z,935.62
2018-10-21T04:07:02.493Z,935.58
2018-10-21T04:08:02.472Z,935.57
2018-10-21T04:09:02.462Z,935.55
2018-10-21T04:10:02.493Z,935.54
2018-10-21T04:11:02.456Z,935.55
2018-10-21T04:12:02.445Z,935.54
2018-10-21T04:13:02.430Z,935.54
2018-10-21T04:14:02.427Z,935.51
2018-10-21T04:15:02.411Z,935.51
2018-10-21T04:16:02.417Z,935.47
2018-10-21T04:17:02.385Z,935.41
2018-10-21T04:18:02.365Z,935.41
2018-10-21T04:19:02.344Z,935.38
2018-10-21T04:20:02.332Z,935.40
2018-10-21T04:21:02.314Z,935.37
2018-10-21T04:22:02.345Z,935.38
2018-10-21T04:23:02.293Z,935.40
2018-10-21T04:24:02.287Z,935.41
2018-10-21T04:25:02.266Z,935.41
2018-10-21T04:26:02.265Z,935.42
2018-10-21T04:27:02.269Z,935.39
2018-10-21T04:28:02.299Z,935.39
2018-10-21T04:29:02.237Z,935.39
2018-10-21T04:30:02.237Z,935.36
2018-10-21T04:31:02.246Z,935.38
2018-10-21T04:32:02.242Z,935.39
2018-10-21T04:33:02.188Z,935.38
2018-10-21T04:34:02.272Z,935.34
2018-10-21T04:35:02.206Z,935.36
2018-10-21T04:36:02.200Z,935.32
2018-10-21T04:37:02.186Z,935.32
2018-10-21T04:38:02.170Z,935.32
2018-10-21T04:39:02.110Z,935.28
2018-10-21T04:40:02.162Z,935.28
2018-10-21T04:41:02.100Z,935.27
2018-10-21T04:42:02.070Z,935.22
2018-10-21T04:43:02.083Z,935.22
2018-10-21T04:44:02.065Z,935.17
2018-10-21T04:45:02.062Z,935.19
2018-10-21T04:46:02.070Z,935.14
2018-10-21T04:47:02.186Z,935.16
2018-10-21T04:48:02.005Z,935.11
2018-10-21T04:49:01.991Z,935.13
2018-10-21T04:50:01.976Z,935.09
2018-10-21T04:51:01.967Z,935.06
2018-10-21T04:52:02.009Z,935.05
2018-10-21T04:53:01.944Z,935.00
2018-10-21T04:54:01.945Z,935.01
2018-10-21T04:55:01.969Z,934.97
2018-10-21T04:56:01.903Z,934.96
2018-10-21T04:57:01.886Z,934.97
2018-10-21T04:58:01.935Z,934.99
2018-10-21T04:59:01.924Z,934.95
2018-10-21T05:00:01.864Z,934.92
2018-10-21T05:01:01.838Z,934.89
2018-10-21T05:02:01.847Z,934.86
2018-10-21T05:03:01.865Z,934.77
2018-10-21T05:04:01.850Z,934.77
2018-10-21T05:05:01.797Z,934.76
2018-10-21T05:06:01.772Z,934.73
2018-10-21T05:07:01.765Z,934.74
2018-10-21T05:08:01.772Z,934.75
2018-10-21T05:09:01.754Z,934.81
2018-10-21T05:10:01.880Z,934.82
2018-10-21T05:11:01.725Z,934.83
2018-10-21T05:12:01.693Z,934.84
2018-10-21T05:13:01.703Z,934.85
2018-10-21T05:14:01.690Z,934.91
2018-10-21T05:15:01.784Z,934.89
2018-10-21T05:16:01.692Z,934.91
2018-10-21T05:17:01.669Z,934.88
2018-10-21T05:18:01.643Z,934.86
2018-10-21T05:19:01.672Z,934.85
2018-10-21T05:20:01.617Z,934.83
2018-10-21T05:21:01.602Z,934.85
2018-10-21T05:22:01.610Z,934.87
2018-10-21T05:23:01.587Z,934.84
2018-10-21T05:24:01.644Z,934.81
2018-10-21T05:25:01.603Z,934.79
2018-10-21T05:26:01.536Z,934.80
2018-10-21T05:27:01.524Z,934.77
2018-10-21T05:28:01.578Z,934.80
2018-10-21T05:29:01.502Z,934.81
2018-10-21T05:30:01.487Z,934.79
2018-10-21T05:31:01.490Z,934.80
2018-10-21T05:32:01.763Z,934.80
2018-10-21T05:33:01.460Z,934.84
2018-10-21T05:34:01.499Z,934.84
2018-10-21T05:35:01.439Z,934.79
2018-10-21T05:36:01.423Z,934.79
2018-10-21T05:37:01.408Z,934.79
2018-10-21T05:38:01.499Z,934.84
2018-10-21T05:39:01.380Z,934.81
2018-10-21T05:40:01.459Z,934.81
2018-10-21T05:41:01.349Z,934.80
2018-10-21T05:42:01.337Z,934.79
2018-10-21T05:43:01.345Z,934.80
2018-10-21T05:44:01.312Z,934.76
2018-10-21T05:45:01.289Z,934.78
2018-10-21T05:46:01.296Z,934.71
2018-10-21T05:47:01.292Z,934.72
2018-10-21T05:48:01.265Z,934.69
2018-10-21T05:49:01.268Z,934.68
2018-10-21T05:50:01.237Z,934.71
2018-10-21T05:51:01.246Z,934.64
2018-10-21T05:52:01.286Z,934.69
2018-10-21T05:53:01.242Z,934.67
2018-10-21T05:54:01.248Z,934.73
2018-10-21T05:55:01.177Z,934.70
2018-10-21T05:56:01.182Z,934.71
2018-10-21T05:57:01.144Z,934.74
2018-10-21T05:58:01.501Z,934.77
2018-10-21T05:59:01.136Z,934.76
2018-10-21T06:00:01.101Z,934.75
2018-10-21T06:01:01.100Z,934.75
2018-10-21T06:02:01.081Z,934.76
2018-10-21T06:03:01.094Z,934.77
2018-10-21T06:04:01.095Z,934.75
2018-10-21T06:05:01.045Z,934.72
2018-10-21T06:06:01.056Z,934.69
2018-10-21T06:07:01.028Z,934.67
2018-10-21T06:08:01.056Z,934.68
2018-10-21T06:09:00.994Z,934.68
2018-10-21T06:10:01.008Z,934.70
2018-10-21T06:11:00.973Z,934.65
2018-10-21T06:12:00.960Z,934.62
2018-10-21T06:13:00.950Z,934.66
2018-10-21T06:14:01.187Z,934.61
2018-10-21T06:15:00.920Z,934.63
2018-10-21T06:16:01.036Z,934.63
2018-10-21T06:17:00.907Z,934.64
2018-10-21T06:18:00.897Z,934.64
2018-10-21T06:19:00.887Z,934.63
2018-10-21T06:20:00.860Z,934.65
2018-10-21T06:21:00.836Z,934.66
2018-10-21T06:22:00.907Z,934.69
2018-10-21T06:23:00.838Z,934.68
2018-10-21T06:24:00.826Z,934.67
2018-10-21T06:25:00.807Z,934.63
2018-10-21T06:26:00.806Z,934.65
2018-10-21T06:27:00.782Z,934.67
2018-10-21T06:28:00.771Z,934.66
2018-10-21T06:29:00.763Z,934.71
2018-10-21T06:30:00.736Z,934.69
2018-10-21T06:31:00.777Z,934.69
2018-10-21T06:32:00.725Z,934.71
2018-10-21T06:33:00.719Z,934.74
2018-10-21T06:34:00.695Z,934.79
2018-10-21T06:35:00.683Z,934.78
2018-10-21T06:36:00.664Z,934.80
2018-10-21T06:37:00.713Z,934.84
2018-10-21T06:38:00.640Z,934.86
2018-10-21T06:39:00.644Z,934.92
2018-10-21T06:40:00.640Z,934.91
2018-10-21T06:41:00.915Z,934.95
2018-10-21T06:42:00.605Z,934.94
2018-10-21T06:43:00.602Z,934.93
2018-10-21T06:44:00.612Z,934.95
2018-10-21T06:45:00.562Z,934.94
2018-10-21T06:46:00.538Z,934.98
2018-10-21T06:47:00.522Z,934.99
2018-10-21T06:48:00.506Z,935.03
2018-10-21T06:49:00.496Z,935.05
2018-10-21T06:50:00.496Z,935.10
2018-10-21T06:51:00.546Z,935.09
2018-10-21T06:52:00.476Z,935.08
2018-10-21T06:53:00.447Z,935.07
2018-10-21T06:54:00.450Z,935.09
2018-10-21T06:55:00.450Z,935.10
2018-10-21T06:56:00.416Z,935.08
2018-10-21T06:57:00.870Z,935.06
2018-10-21T06:58:00.391Z,935.08
2018-10-21T06:59:00.407Z,935.09
2018-10-21T07:00:00.420Z,935.08
2018-10-21T07:01:00.350Z,935.09
2018-10-21T07:02:00.344Z,935.15
2018-10-21T07:03:00.334Z,935.16
2018-10-21T07:04:00.342Z,935.16
2018-10-21T07:05:00.345Z,935.17
2018-10-21T07:06:00.283Z,935.15
2018-10-21T07:07:00.292Z,935.10
2018-10-21T07:08:00.281Z,935.14
2018-10-21T07:09:00.271Z,935.10
2018-10-21T07:10:00.296Z,935.09
2018-10-21T07:11:00.276Z,935.13
2018-10-21T07:12:00.207Z,935.11
2018-10-21T07:13:00.512Z,935.13
2018-10-21T07:14:00.187Z,935.14
2018-10-21T07:15:00.184Z,935.17
2018-10-21T07:16:00.256Z,935.17
2018-10-21T07:17:00.167Z,935.20
2018-10-21T07:18:00.134Z,935.17
2018-10-21T07:19:00.136Z,935.12
2018-10-21T07:20:00.143Z,935.14
2018-10-21T07:21:00.102Z,935.16
2018-10-21T07:22:00.146Z,935.14
2018-10-21T07:23:00.132Z,935.18
2018-10-21T07:24:00.088Z,935.20
2018-10-21T07:25:00.057Z,935.20
2018-10-21T07:26:00.046Z,935.19
2018-10-21T07:27:00.052Z,935.23
2018-10-21T07:28:00.062Z,935.20
2018-10-21T07:29:00.356Z,935.22
2018-10-21T07:29:59.998Z,935.24
2018-10-21T07:30:59.998Z,935.25
2018-10-21T07:31:59.981Z,935.23
2018-10-21T07:32:59.983Z,935.23
2018-10-21T07:33:59.982Z,935.25
2018-10-21T07:34:59.941Z,935.29
2018-10-21T07:35:59.935Z,935.34
2018-10-21T07:36:59.903Z,935.34
2018-10-21T07:37:59.914Z,935.38
2018-10-21T07:38:59.898Z,935.37
2018-10-21T07:39:59.876Z,935.38
2018-10-21T07:40:59.868Z,935.38
2018-10-21T07:41:59.841Z,935.37
2018-10-21T07:42:59.843Z,935.33
2018-10-21T07:43:59.805Z,935.37
2018-10-21T07:44:59.822Z,935.38
2018-10-21T07:45:59.854Z,935.35
2018-10-21T07:46:59.791Z,935.36
2018-10-21T07:47:59.792Z,935.34
2018-10-21T07:48:59.865Z,935.37
2018-10-21T07:49:59.749Z,935.38
2018-10-21T07:50:59.737Z,935.42
2018-10-21T07:51:59.750Z,935.45
2018-10-21T07:52:59.718Z,935.41
2018-10-21T07:53:59.679Z,935.44
2018-10-21T07:54:59.699Z,935.48
2018-10-21T07:55:59.697Z,935.50
2018-10-21T07:56:59.671Z,935.54
2018-10-21T07:57:59.741Z,935.50
2018-10-21T07:58:59.619Z,935.57
2018-10-21T07:59:59.635Z,935.57
2018-10-21T08:00:59.638Z,935.59
2018-10-21T08:01:59.617Z,935.58
2018-10-21T08:02:59.582Z,935.55
2018-10-21T08:03:59.602Z,935.54
2018-10-21T08:04:59.564Z,935.52
2018-10-21T08:05:59.852Z,935.49
2018-10-21T08:06:59.520Z,935.49
2018-10-21T08:07:59.533Z,935.49
2018-10-21T08:08:59.552Z,935.47
2018-10-21T08:09:59.521Z,935.49
2018-10-21T08:10:59.491Z,935.49
2018-10-21T08:11:59.464Z,935.50
2018-10-21T08:12:59.467Z,935.50
2018-10-21T08:13:59.445Z,935.51
2018-10-21T08:14:59.454Z,935.55
2018-10-21T08:15:59.408Z,935.58
2018-10-21T08:16:59.408Z,935.58
2018-10-21T08:17:59.412Z,935.59
2018-10-21T08:18:59.410Z,935.63
2018-10-21T08:19:59.360Z,935.63
2018-10-21T08:20:59.375Z,935.60
2018-10-21T08:21:59.404Z,935.64
2018-10-21T08:22:59.324Z,935.68
2018-10-21T08:23:59.332Z,935.64
2018-10-21T08:24:59.305Z,935.57
2018-10-21T08:25:59.344Z,935.59
2018-10-21T08:26:59.323Z,935.58
2018-10-21T08:27:59.312Z,935.55
2018-10-21T08:28:59.261Z,935.56
2018-10-21T08:29:59.246Z,935.51
2018-10-21T08:30:59.228Z,935.54
2018-10-21T08:31:59.239Z,935.51
2018-10-21T08:32:59.212Z,935.57
2018-10-21T08:33:59.276Z,935.57
2018-10-21T08:34:59.186Z,935.53
2018-10-21T08:35:59.209Z,935.55
2018-10-21T08:36:59.153Z,935.62
2018-10-21T08:37:59.204Z,935.60
2018-10-21T08:38:59.140Z,935.62
2018-10-21T08:39:59.158Z,935.60
2018-10-21T08:40:59.128Z,935.57
2018-10-21T08:41:59.115Z,935.60
2018-10-21T08:42:59.087Z,935.55
2018-10-21T08:43:59.067Z,935.57
2018-10-21T08:44:59.060Z,935.55
2018-10-21T08:45:59.112Z,935.59
2018-10-21T08:46:59.039Z,935.56
2018-10-21T08:47:59.024Z,935.58
2018-10-21T08:48:59.039Z,935.60
2018-10-21T08:49:59.030Z,935.63
2018-10-21T08:50:59.026Z,935.64
2018-10-21T08:51:59.013Z,935.66
2018-10-21T08:52:59.206Z,935.66
2018-10-21T08:53:58.959Z,935.67
2018-10-21T08:54:58.947Z,935.65
2018-10-21T08:55:59.041Z,935.69
2018-10-21T08:56:58.908Z,935.68
2018-10-21T08:57:58.939Z,935.66
2018-10-21T08:58:58.888Z,935.68
2018-10-21T08:59:58.886Z,935.60
2018-10-21T09:00:58.921Z,935.65
2018-10-21T09:01:58.906Z,935.69
2018-10-21T09:02:58.845Z,935.68
2018-10-21T09:03:58.865Z,935.72
2018-10-21T09:04:58.817Z,935.72
2018-10-21T09:05:58.793Z,935.72
2018-10-21T09:06:58.833Z,935.72
2018-10-21T09:07:58.779Z,935.71
2018-10-21T09:08:58.769Z,935.77
2018-10-21T09:09:58.772Z,935.76
2018-10-21T09:10:58.775Z,935.78
2018-10-21T09:11:58.732Z,935.84
2018-10-21T09:12:58.751Z,935.87
2018-10-21T09:13:58.750Z,935.83
2018-10-21T09:14:58.723Z,935.87
2018-10-21T09:15:58.722Z,935.90
2018-10-21T09:16:58.661Z,935.91
2018-10-21T09:17:58.660Z,935.87
2018-10-21T09:18:58.688Z,935.91
2018-10-21T09:19:58.634Z,935.91
2018-10-21T09:20:58.616Z,935.93
2018-10-21T09:21:58.626Z,935.94
2018-10-21T09:22:58.607Z,935.96
2018-10-21T09:23:58.580Z,935.99
2018-10-21T09:24:58.596Z,935.92
2018-10-21T09:25:58.582Z,935.98
2018-10-21T09:26:58.566Z,935.98
2018-10-21T09:27:58.578Z,935.96
2018-10-21T09:28:58.543Z,936.00
2018-10-21T09:29:58.509Z,935.98
2018-10-21T09:30:58.541Z,935.96
2018-10-21T09:31:58.492Z,935.94
2018-10-21T09:32:58.476Z,935.94
2018-10-21T09:33:58.541Z,935.91
2018-10-21T09:34:58.467Z,935.91
2018-10-21T09:35:58.442Z,935.87
2018-10-21T09:36:58.481Z,935.87
2018-10-21T09:37:58.426Z,935.88
2018-10-21T09:38:58.417Z,935.85
2018-10-21T09:39:58.437Z,935.91
2018-10-21T09:40:58.428Z,935.94
2018-10-21T09:41:58.380Z,935.90
2018-10-21T09:42:58.397Z,935.89
2018-10-21T09:43:58.355Z,935.95
2018-10-21T09:44:58.336Z,935.95
2018-10-21T09:45:58.365Z,935.94
2018-10-21T09:46:58.314Z,935.99
2018-10-21T09:47:58.292Z,935.96
2018-10-21T09:48:58.349Z,935.99
2018-10-21T09:49:58.384Z,936.01
2018-10-21T09:50:58.274Z,936.04
2018-10-21T09:51:58.308Z,935.99
2018-10-21T09:52:58.239Z,936.01
2018-10-21T09:53:58.542Z,936.03
2018-10-21T09:54:58.314Z,936.02
2018-10-21T09:55:58.214Z,936.01
2018-10-21T09:56:58.237Z,936.01
2018-10-21T09:57:58.210Z,936.00
2018-10-21T09:58:58.173Z,936.00
2018-10-21T09:59:58.165Z,936.02
2018-10-21T10:00:58.141Z,936.08
2018-10-21T10:01:58.144Z,936.05
2018-10-21T10:02:58.131Z,936.01
2018-10-21T10:03:58.495Z,936.12
2018-10-21T10:04:58.093Z,936.08
2018-10-21T10:05:58.098Z,936.08
2018-10-21T10:06:58.099Z,936.10
2018-10-21T10:07:58.077Z,936.12
2018-10-21T10:08:58.063Z,936.11
2018-10-21T10:09:58.046Z,936.17
2018-10-21T10:10:58.033Z,936.17
2018-10-21T10:11:58.028Z,936.21
2018-10-21T10:12:58.031Z,936.18
2018-10-21T10:13:57.979Z,936.18
2018-10-21T10:14:57.983Z,936.14
2018-10-21T10:15:58.024Z,936.16
2018-10-21T10:16:57.965Z,936.15
2018-10-21T10:17:57.934Z,936.17
2018-10-21T10:18:58.015Z,936.19
2018-10-21T10:19:57.934Z,936.15
2018-10-21T10:20:57.909Z,936.15
2018-10-21T10:21:57.983Z,936.18
2018-10-21T10:22:57.932Z,936.18
2018-10-21T10:23:58.223Z,936.20
2018-10-21T10:24:57.908Z,936.20
2018-10-21T10:25:57.856Z,936.22
2018-10-21T10:26:57.846Z,936.21
2018-10-21T10:27:57.879Z,936.17
2018-10-21T10:28:57.802Z,936.20
2018-10-21T10:29:57.815Z,936.13
2018-10-21T10:30:57.822Z,936.15
2018-10-21T10:31:57.784Z,936.19
2018-10-21T10:32:57.791Z,936.20
2018-10-21T10:33:57.790Z,936.16
2018-10-21T10:34:58.067Z,936.22
2018-10-21T10:35:57.791Z,936.18
2018-10-21T10:36:57.822Z,936.21
2018-10-21T10:37:57.723Z,936.22
2018-10-21T10:38:57.719Z,936.22
2018-10-21T10:39:57.721Z,936.21
2018-10-21T10:40:57.715Z,936.18
2018-10-21T10:41:57.784Z,936.19
2018-10-21T10:42:57.723Z,936.21
2018-10-21T10:43:57.698Z,936.23
2018-10-21T10:44:57.643Z,936.24
2018-10-21T10:45:57.972Z,936.25
2018-10-21T10:46:57.627Z,936.33
2018-10-21T10:47:57.594Z,936.28
2018-10-21T10:48:57.606Z,936.35
2018-10-21T10:49:57.573Z,936.30
2018-10-21T10:50:57.582Z,936.31
2018-10-21T10:51:57.621Z,936.36
2018-10-21T10:52:57.566Z,936.38
2018-10-21T10:53:57.526Z,936.40
2018-10-21T10:54:57.563Z,936.40
2018-10-21T10:55:57.546Z,936.41
2018-10-21T10:56:57.508Z,936.37
2018-10-21T10:57:57.522Z,936.40
2018-10-21T10:58:57.474Z,936.43
2018-10-21T10:59:57.646Z,936.47
2018-10-21T11:00:57.464Z,936.46
2018-10-21T11:01:57.757Z,936.51
2018-10-21T11:02:57.426Z,936.55
2018-10-21T11:03:57.486Z,936.52
2018-10-21T11:04:58.906Z,936.46
2018-10-21T11:05:57.480Z,936.49
2018-10-21T11:06:57.681Z,936.46
2018-10-21T11:07:57.665Z,936.44
2018-10-21T11:08:57.648Z,936.47
2018-10-21T11:09:58.614Z,936.45
2018-10-21T11:10:57.366Z,936.46
2018-10-21T11:11:57.358Z,936.51
2018-10-21T11:12:57.362Z,936.52
2018-10-21T11:13:57.340Z,936.51
2018-10-21T11:14:57.320Z,936.58
2018-10-21T11:15:57.333Z,936.54
2018-10-21T11:16:57.298Z,936.55
2018-10-21T11:17:57.293Z,936.48
2018-10-21T11:18:57.300Z,936.51
2018-10-21T11:19:57.266Z,936.47
2018-10-21T11:20:57.242Z,936.51
2018-10-21T11:21:57.258Z,936.50
2018-10-21T11:22:57.365Z,936.51
2018-10-21T11:23:57.236Z,936.50
2018-10-21T11:24:57.241Z,936.52
2018-10-21T11:25:57.213Z,936.52
2018-10-21T11:26:57.193Z,936.55
2018-10-21T11:27:57.186Z,936.55
2018-10-21T11:28:58.629Z,936.57
2018-10-21T11:29:57.414Z,936.58
2018-10-21T11:30:57.448Z,936.62
2018-10-21T11:31:58.404Z,936.54
2018-10-21T11:33:16.411Z,936.56
2018-10-21T11:34:02.240Z,936.55
2018-10-21T11:34:57.176Z,936.57
2018-10-21T11:36:00.214Z,936.59
2018-10-21T11:36:58.599Z,936.59
2018-10-21T11:37:58.373Z,936.62
2018-10-21T11:38:57.131Z,936.57
2018-10-21T11:39:57.186Z,936.55
2018-10-21T11:40:58.335Z,936.58
2018-10-21T11:41:57.102Z,936.57
2018-10-21T11:42:57.292Z,936.61
2018-10-21T11:43:58.339Z,936.63
2018-10-21T11:44:57.070Z,936.66
2018-10-21T11:45:57.287Z,936.67
2018-10-21T11:46:58.466Z,936.64
2018-10-21T11:47:58.459Z,936.64
2018-10-21T11:48:57.247Z,936.63
2018-10-21T11:49:57.280Z,936.60
2018-10-21T11:50:57.030Z,936.62
2018-10-21T11:51:57.233Z,936.59
2018-10-21T11:52:57.003Z,936.58
2018-10-21T11:54:00.037Z,936.51
2018-10-21T11:54:57.235Z,936.49
2018-10-21T11:55:57.217Z,936.50
2018-10-21T11:56:57.161Z,936.53
2018-10-21T11:57:58.431Z,936.50
2018-10-21T11:58:56.953Z,936.56
2018-10-21T11:59:56.888Z,936.56
2018-10-21T12:00:56.888Z,936.53
2018-10-21T12:01:56.863Z,936.54
2018-10-21T12:02:56.832Z,936.54
2018-10-21T12:03:56.832Z,936.56
2018-10-21T12:04:56.810Z,936.56
2018-10-21T12:05:56.812Z,936.63
2018-10-21T12:06:56.816Z,936.59
2018-10-21T12:07:56.797Z,936.62
2018-10-21T12:08:56.783Z,936.63
2018-10-21T12:09:56.793Z,936.67
2018-10-21T12:10:56.758Z,936.70
2018-10-21T12:11:56.759Z,936.69
2018-10-21T12:12:56.804Z,936.67
2018-10-21T12:13:56.720Z,936.65
2018-10-21T12:14:56.779Z,936.66
2018-10-21T12:15:56.750Z,936.65
2018-10-21T12:16:56.716Z,936.68
2018-10-21T12:17:56.684Z,936.67
2018-10-21T12:18:56.673Z,936.61
2018-10-21T12:19:56.748Z,936.62
2018-10-21T12:20:56.667Z,936.65
2018-10-21T12:21:56.717Z,936.67
2018-10-21T12:22:56.734Z,936.64
2018-10-21T12:23:56.626Z,936.62
2018-10-21T12:24:56.677Z,936.61
2018-10-21T12:25:56.627Z,936.61
2018-10-21T12:26:56.607Z,936.59
2018-10-21T12:27:56.610Z,936.64